createdAt,value
2022-10-17T00:02:04.492Z,101350.34
2022-10-17T00:04:37.013Z,101351.19
2022-10-17T00:07:09.560Z,101343.22
2022-10-17T00:09:44.063Z,101339.59
2022-10-17T00:12:16.601Z,101341.34
2022-10-17T00:14:49.142Z,101344.03
2022-10-17T00:17:21.680Z,101345.75
2022-10-17T00:19:54.223Z,101338.63
2022-10-17T00:22:28.285Z,101337.72
2022-10-17T00:25:00.829Z,101336.81
2022-10-17T00:27:38.645Z,101325.28
2022-10-17T00:30:15.208Z,101333.25
2022-10-17T00:32:47.734Z,101327.09
2022-10-17T00:35:20.541Z,101327.16
2022-10-17T00:37:53.080Z,101322.66
2022-10-17T00:40:25.862Z,101322.69
2022-10-17T00:42:58.346Z,101322.66
2022-10-17T00:45:31.581Z,101320.88
2022-10-17T00:48:10.817Z,101320.00
2022-10-17T00:50:48.298Z,101318.25
2022-10-17T00:53:20.981Z,101320.88
2022-10-17T00:55:54.388Z,101320.91
2022-10-17T00:58:26.992Z,101315.63
2022-10-17T01:00:59.899Z,101323.56
2022-10-17T01:03:32.689Z,101320.88
2022-10-17T01:06:05.309Z,101318.06
2022-10-17T01:08:38.825Z,101319.69
2022-10-17T01:11:37.721Z,101314.19
2022-10-17T01:14:35.700Z,101321.09
2022-10-17T01:17:48.408Z,101313.72
2022-10-17T01:21:03.171Z,101318.97
2022-10-17T01:24:12.755Z,101323.31
2022-10-17T01:27:16.434Z,101319.72
2022-10-17T01:30:46.420Z,101315.09
2022-10-17T01:33:36.962Z,101311.44
2022-10-17T01:36:41.781Z,101315.88
2022-10-17T01:39:32.516Z,101311.31
2022-10-17T01:42:24.344Z,101314.84
2022-10-17T01:45:08.096Z,101304.13
2022-10-17T01:47:43.070Z,101301.50
2022-10-17T01:50:25.590Z,101301.47
2022-10-17T01:53:23.590Z,101309.44
2022-10-17T01:56:02.789Z,101304.19
2022-10-17T01:58:47.876Z,101307.78
2022-10-17T02:01:24.264Z,101306.00
2022-10-17T02:04:00.661Z,101304.31
2022-10-17T02:06:38.049Z,101297.31
2022-10-17T02:09:26.682Z,101300.81
2022-10-17T02:12:34.921Z,101294.56
2022-10-17T02:16:01.143Z,101285.75
2022-10-17T02:19:34.148Z,101280.34
2022-10-17T02:22:41.284Z,101274.06
2022-10-17T02:25:14.314Z,101287.31
2022-10-17T02:28:06.667Z,101282.06
2022-10-17T02:30:52.503Z,101274.84
2022-10-17T02:34:05.459Z,101288.91
2022-10-17T02:36:49.025Z,101288.59
2022-10-17T02:39:25.125Z,101289.34
2022-10-17T02:42:03.724Z,101294.63
2022-10-17T02:44:40.753Z,101289.28
2022-10-17T02:47:27.403Z,101290.25
2022-10-17T02:50:05.125Z,101288.50
2022-10-17T02:52:48.198Z,101291.19
2022-10-17T02:55:32.227Z,101285.03
2022-10-17T02:58:16.011Z,101287.63
2022-10-17T03:00:50.363Z,101280.47
2022-10-17T03:03:31.919Z,101286.78
2022-10-17T03:06:04.518Z,101285.75
2022-10-17T03:11:10.758Z,101282.13
2022-10-17T03:13:43.307Z,101290.06
2022-10-17T03:16:15.846Z,101282.94
2022-10-17T03:18:51.469Z,101281.13
2022-10-17T03:21:24.104Z,101281.94
2022-10-17T03:23:56.617Z,101291.69
2022-10-17T03:26:29.631Z,101279.34
2022-10-17T03:29:02.245Z,101294.34
2022-10-17T03:31:35.963Z,101287.09
2022-10-17T03:34:08.482Z,101286.28
2022-10-17T03:36:41.035Z,101283.66
2022-10-17T03:39:15.130Z,101285.34
2022-10-17T03:41:47.814Z,101285.28
2022-10-17T03:44:20.430Z,101292.38
2022-10-17T03:46:52.977Z,101274.56
2022-10-17T03:49:25.541Z,101270.06
2022-10-17T03:51:58.175Z,101266.41
2022-10-17T03:54:30.834Z,101270.00
2022-10-17T03:57:03.673Z,101276.97
2022-10-17T03:59:36.880Z,101279.50
2022-10-17T04:02:09.467Z,101292.69
2022-10-17T04:04:42.106Z,101285.47
2022-10-17T04:07:17.304Z,101293.41
2022-10-17T04:09:50.058Z,101295.13
2022-10-17T04:12:22.763Z,101287.88
2022-10-17T04:14:55.502Z,101292.16
2022-10-17T04:17:35.782Z,101303.50
2022-10-17T04:20:10.926Z,101298.03
2022-10-17T04:22:43.526Z,101301.47
2022-10-17T04:25:16.095Z,101298.72
2022-10-17T04:27:51.373Z,101313.69
2022-10-17T04:30:27.660Z,101324.22
2022-10-17T04:33:00.880Z,101306.53
2022-10-17T04:35:36.774Z,101319.78
2022-10-17T04:38:10.803Z,101310.81
2022-10-17T04:40:43.633Z,101333.97
2022-10-17T04:43:18.415Z,101336.81
2022-10-17T04:45:50.928Z,101334.13
2022-10-17T04:48:23.570Z,101332.34
2022-10-17T04:51:07.145Z,101343.94
2022-10-17T04:53:44.250Z,101350.19
2022-10-17T04:56:22.726Z,101350.13
2022-10-17T04:58:55.364Z,101356.34
2022-10-17T05:01:28.469Z,101351.09
2022-10-17T05:04:04.734Z,101354.50
2022-10-17T05:06:37.867Z,101349.13
2022-10-17T05:09:10.416Z,101349.88
2022-10-17T05:12:08.006Z,101347.13
2022-10-17T05:14:54.559Z,101342.69
2022-10-17T05:17:40.992Z,101346.09
2022-10-17T05:20:15.302Z,101363.63
2022-10-17T05:22:47.885Z,101351.09
2022-10-17T05:25:22.064Z,101358.13
2022-10-17T05:27:54.952Z,101365.13
2022-10-17T05:30:27.516Z,101367.69
2022-10-17T05:33:00.095Z,101366.69
2022-10-17T05:35:38.781Z,101370.03
2022-10-17T05:39:26.904Z,101371.63
2022-10-17T05:42:03.673Z,101374.00
2022-10-17T05:44:39.143Z,101378.34
2022-10-17T05:47:11.765Z,101378.22
2022-10-17T05:49:48.597Z,101375.50
2022-10-17T05:52:22.542Z,101384.34
2022-10-17T05:54:55.176Z,101382.59
2022-10-17T05:57:27.835Z,101371.75
2022-10-17T06:00:01.099Z,101385.16
2022-10-17T06:02:34.003Z,101374.66
2022-10-17T06:05:07.068Z,101386.34
2022-10-17T06:07:40.477Z,101385.41
2022-10-17T06:10:15.032Z,101383.56
2022-10-17T06:12:47.729Z,101388.00
2022-10-17T06:15:20.270Z,101383.47
2022-10-17T06:17:52.739Z,101387.81
2022-10-17T06:20:25.257Z,101398.34
2022-10-17T06:22:57.722Z,101386.81
2022-10-17T06:25:34.048Z,101386.75
2022-10-17T06:28:11.252Z,101393.81
2022-10-17T06:30:46.429Z,101391.03
2022-10-17T06:33:20.711Z,101384.63
2022-10-17T06:35:57.464Z,101395.28
2022-10-17T06:38:30.598Z,101391.69
2022-10-17T06:41:13.695Z,101396.78
2022-10-17T06:43:50.127Z,101401.09
2022-10-17T06:46:26.948Z,101409.81
2022-10-17T06:48:59.525Z,101415.00
2022-10-17T06:51:39.889Z,101414.06
2022-10-17T06:54:14.089Z,101414.59
2022-10-17T06:56:46.740Z,101410.00
2022-10-17T06:59:23.944Z,101411.75
2022-10-17T07:01:59.507Z,101413.13
2022-10-17T07:04:34.162Z,101412.00
2022-10-17T07:07:12.623Z,101428.59
2022-10-17T07:09:49.345Z,101421.22
2022-10-17T07:12:22.365Z,101423.03
2022-10-17T07:14:54.843Z,101423.72
2022-10-17T07:17:27.506Z,101420.28
2022-10-17T07:20:00.322Z,101418.22
2022-10-17T07:22:32.816Z,101435.13
2022-10-17T07:25:06.213Z,101439.72
2022-10-17T07:27:38.679Z,101436.13
2022-10-17T07:30:11.845Z,101441.63
2022-10-17T07:32:44.584Z,101451.13
2022-10-17T07:35:17.073Z,101471.72
2022-10-17T07:37:49.556Z,101490.28
2022-10-17T07:40:22.090Z,101517.94
2022-10-17T07:42:56.334Z,101542.03
2022-10-17T07:45:29.263Z,101550.88
2022-10-17T07:48:01.763Z,101563.38
2022-10-17T07:50:34.367Z,101571.34
2022-10-17T07:53:07.010Z,101581.84
2022-10-17T07:55:41.585Z,101583.75
2022-10-17T07:58:15.426Z,101588.88
2022-10-17T08:00:49.047Z,101586.06
2022-10-17T08:03:21.765Z,101574.53
2022-10-17T08:06:01.665Z,101577.13
2022-10-17T08:08:34.586Z,101581.53
2022-10-17T08:11:11.130Z,101576.19
2022-10-17T08:13:43.711Z,101583.41
2022-10-17T08:16:16.252Z,101602.00
2022-10-17T08:18:48.706Z,101621.84
2022-10-17T08:21:21.206Z,101652.16
2022-10-17T08:23:55.145Z,101651.63
2022-10-17T08:26:32.773Z,101640.81
2022-10-17T08:29:07.586Z,101638.94
2022-10-17T08:31:40.473Z,101642.56
2022-10-17T08:34:23.769Z,101648.97
2022-10-17T08:36:56.723Z,101642.78
2022-10-17T08:39:29.415Z,101639.16
2022-10-17T08:42:45.042Z,101642.19
2022-10-17T08:45:31.521Z,101653.56
2022-10-17T08:48:17.645Z,101633.84
2022-10-17T08:51:02.899Z,101633.03
2022-10-17T08:54:06.410Z,101626.75
2022-10-17T08:56:48.922Z,101628.56
2022-10-17T08:59:30.121Z,101635.66
2022-10-17T09:02:37.480Z,101639.91
2022-10-17T09:05:33.949Z,101642.44
2022-10-17T09:08:33.459Z,101652.53
2022-10-17T09:11:49.389Z,101662.13
2022-10-17T09:15:03.099Z,101681.03
2022-10-17T09:17:50.556Z,101691.28
2022-10-17T09:20:51.495Z,101710.84
2022-10-17T09:23:38.003Z,101713.63
2022-10-17T09:26:14.058Z,101678.09
2022-10-17T09:28:56.231Z,101642.78
2022-10-17T09:32:04.871Z,101606.94
2022-10-17T09:34:37.980Z,101607.69
2022-10-17T09:37:17.181Z,101611.97
2022-10-17T09:39:50.166Z,101633.25
2022-10-17T09:42:27.410Z,101650.97
2022-10-17T09:45:47.155Z,101668.66
2022-10-17T09:48:35.543Z,101669.44
2022-10-17T09:51:21.762Z,101667.47
2022-10-17T09:54:05.368Z,101653.94
2022-10-17T09:57:08.815Z,101649.41
2022-10-17T09:59:56.057Z,101633.81
2022-10-17T10:02:33.898Z,101639.91
2022-10-17T10:05:29.134Z,101636.22
2022-10-17T10:08:26.504Z,101644.63
2022-10-17T10:11:13.889Z,101651.63
2022-10-17T10:13:55.071Z,101664.41
2022-10-17T10:16:55.573Z,101665.09
2022-10-17T10:19:55.847Z,101679.31
2022-10-17T10:22:42.472Z,101691.84
2022-10-17T10:25:31.383Z,101702.78
2022-10-17T10:28:25.731Z,101710.25
2022-10-17T10:31:48.839Z,101698.56
2022-10-17T10:34:37.413Z,101693.13
2022-10-17T10:38:22.320Z,101711.72
2022-10-17T10:40:27.410Z,101725.69
2022-10-17T10:43:08.613Z,101738.72
2022-10-17T10:45:50.724Z,101754.00
2022-10-17T10:49:18.078Z,101757.50
2022-10-17T10:52:08.687Z,101770.25
2022-10-17T10:55:29.337Z,101767.56
2022-10-17T10:58:41.768Z,101765.91
2022-10-17T11:05:17.845Z,101768.50
2022-10-17T11:08:15.582Z,101768.50
2022-10-17T11:14:41.036Z,101781.28
2022-10-17T11:17:37.495Z,101775.84
2022-10-17T11:20:46.710Z,101788.25
2022-10-17T11:23:43.964Z,101784.44
2022-10-17T11:26:41.173Z,101794.16
2022-10-17T11:29:36.383Z,101805.91
2022-10-17T11:32:28.457Z,101810.19
2022-10-17T11:35:28.183Z,101815.91
2022-10-17T11:38:32.694Z,101809.41
2022-10-17T11:41:21.465Z,101811.50
2022-10-17T11:44:19.251Z,101810.31
2022-10-17T11:47:12.614Z,101811.25
2022-10-17T11:53:27.240Z,101828.81
2022-10-17T11:56:05.065Z,101824.53
2022-10-17T11:59:30.048Z,101823.78
2022-10-17T12:02:29.181Z,101824.50
2022-10-17T12:05:18.254Z,101830.72
2022-10-17T12:08:30.615Z,101834.03
2022-10-17T12:11:41.386Z,101843.81
2022-10-17T12:14:49.666Z,101835.28
2022-10-17T12:17:53.989Z,101838.78
2022-10-17T12:20:39.403Z,101853.03
2022-10-17T12:23:15.257Z,101843.59
2022-10-17T12:26:03.248Z,101843.69
2022-10-17T12:28:49.415Z,101838.78
2022-10-17T12:31:34.075Z,101832.63
2022-10-17T12:34:26.272Z,101836.00
2022-10-17T12:37:03.024Z,101840.13
2022-10-17T12:39:51.396Z,101848.22
2022-10-17T12:42:43.435Z,101834.28
2022-10-17T12:45:59.623Z,101841.69
2022-10-17T12:48:39.782Z,101846.03
2022-10-17T12:51:37.926Z,101858.13
2022-10-17T12:54:24.364Z,101865.47
2022-10-17T12:57:07.105Z,101870.66
2022-10-17T12:59:55.598Z,101873.34
2022-10-17T13:02:36.374Z,101881.19
2022-10-17T13:05:24.146Z,101885.91
2022-10-17T13:08:14.556Z,101894.28
2022-10-17T13:10:55.593Z,101878.94
2022-10-17T13:13:52.780Z,101882.13
2022-10-17T13:16:38.848Z,101889.31
2022-10-17T13:19:33.772Z,101888.97
2022-10-17T13:22:54.681Z,101889.22
2022-10-17T13:25:39.560Z,101894.50
2022-10-17T13:28:22.374Z,101896.56
2022-10-17T13:30:57.080Z,101903.09
2022-10-17T13:34:01.249Z,101908.44
2022-10-17T13:40:07.040Z,101916.75
2022-10-17T13:43:10.844Z,101921.09
2022-10-17T13:45:51.511Z,101921.03
2022-10-17T13:48:40.507Z,101920.75
2022-10-17T13:51:22.606Z,101919.97
2022-10-17T13:54:11.832Z,101930.81
2022-10-17T13:56:58.607Z,101930.81
2022-10-17T13:59:45.653Z,101946.88
2022-10-17T14:02:33.876Z,101941.41
2022-10-17T14:05:37.532Z,101940.13
2022-10-17T14:08:26.936Z,101958.66
2022-10-17T14:11:03.889Z,101962.75
2022-10-17T14:13:50.095Z,101971.53
2022-10-17T14:16:26.601Z,101965.09
2022-10-17T14:19:03.863Z,101971.00
2022-10-17T14:22:07.177Z,101971.69
2022-10-17T14:28:23.250Z,101983.25
2022-10-17T14:31:38.805Z,101979.03
2022-10-17T14:34:35.710Z,101981.41
2022-10-17T14:44:23.669Z,101975.06
2022-10-17T14:50:27.209Z,101973.16
2022-10-17T14:53:35.946Z,101977.16
2022-10-17T14:56:45.927Z,101972.56
2022-10-17T15:02:25.534Z,101974.91
2022-10-17T15:05:30.622Z,101967.63
2022-10-17T15:08:29.393Z,101976.06
2022-10-17T15:11:13.546Z,101981.13
2022-10-17T15:13:51.292Z,101982.84
2022-10-17T15:16:40.218Z,101997.78
2022-10-17T15:19:44.419Z,101993.59
2022-10-17T15:22:22.538Z,102005.59
2022-10-17T15:25:29.725Z,102015.91
2022-10-17T15:31:16.062Z,102015.34
2022-10-17T15:34:10.890Z,102028.13
2022-10-17T15:36:53.796Z,102041.28
2022-10-17T15:39:26.327Z,102039.06
2022-10-17T15:42:02.783Z,102043.53
2022-10-17T15:44:37.944Z,102045.47
2022-10-17T15:47:29.091Z,102042.59
2022-10-17T15:50:02.540Z,102046.03
2022-10-17T15:52:35.859Z,102048.81
2022-10-17T15:55:10.902Z,102047.31
2022-10-17T15:57:46.521Z,102044.53
2022-10-17T16:00:23.936Z,102052.81
2022-10-17T16:02:56.690Z,102051.16
2022-10-17T16:05:29.665Z,102061.09
2022-10-17T16:08:02.271Z,102065.88
2022-10-17T16:10:39.322Z,102066.88
2022-10-17T16:13:22.087Z,102075.13
2022-10-17T16:15:54.675Z,102070.25
2022-10-17T16:18:27.226Z,102074.63
2022-10-17T16:21:00.328Z,102064.00
2022-10-17T16:23:33.034Z,102074.78
2022-10-17T16:26:06.478Z,102074.03
2022-10-17T16:28:43.609Z,102071.47
2022-10-17T16:31:33.145Z,102070.75
2022-10-17T16:34:09.459Z,102073.72
2022-10-17T16:36:42.798Z,102072.88
2022-10-17T16:39:15.455Z,102072.13
2022-10-17T16:41:48.521Z,102076.88
2022-10-17T16:44:22.702Z,102089.41
2022-10-17T16:46:55.281Z,102088.63
2022-10-17T16:49:27.987Z,102087.72
2022-10-17T16:52:00.984Z,102081.66
2022-10-17T16:54:34.978Z,102086.19
2022-10-17T16:57:08.767Z,102084.47
2022-10-17T16:59:41.910Z,102088.09
2022-10-17T17:02:17.567Z,102084.56
2022-10-17T17:04:53.416Z,102093.50
2022-10-17T17:07:29.522Z,102098.97
2022-10-17T17:10:02.666Z,102098.13
2022-10-17T17:12:36.955Z,102103.50
2022-10-17T17:15:09.579Z,102097.31
2022-10-17T17:17:50.617Z,102105.50
2022-10-17T17:20:26.022Z,102104.66
2022-10-17T17:22:58.623Z,102098.38
2022-10-17T17:25:31.337Z,102106.47
2022-10-17T17:28:04.529Z,102106.47
2022-10-17T17:30:37.106Z,102118.94
2022-10-17T17:33:11.315Z,102127.06
2022-10-17T17:38:46.214Z,102129.78
2022-10-17T17:41:26.124Z,102139.66
2022-10-17T17:44:00.786Z,102139.72
2022-10-17T17:46:58.020Z,102144.28
2022-10-17T17:49:39.725Z,102142.47
2022-10-17T17:52:24.301Z,102152.31
2022-10-17T17:55:02.555Z,102155.94
2022-10-17T17:57:46.279Z,102154.19
2022-10-17T18:00:26.835Z,102151.50
2022-10-17T18:03:08.004Z,102154.16
2022-10-17T18:05:45.790Z,102162.19
2022-10-17T18:08:21.083Z,102160.44
2022-10-17T18:11:01.300Z,102160.56
2022-10-17T18:13:45.856Z,102153.38
2022-10-17T18:16:20.506Z,102169.44
2022-10-17T18:19:06.886Z,102171.25
2022-10-17T18:21:44.436Z,102170.34
2022-10-17T18:24:37.747Z,102175.75
2022-10-17T18:27:32.581Z,102177.69
2022-10-17T18:30:17.006Z,102174.25
2022-10-17T18:33:04.557Z,102173.53
2022-10-17T18:35:45.088Z,102179.94
2022-10-17T18:38:28.087Z,102188.97
2022-10-17T18:41:37.959Z,102183.63
2022-10-17T18:44:18.016Z,102188.00
2022-10-17T18:47:01.427Z,102185.31
2022-10-17T18:49:43.000Z,102192.53
2022-10-17T18:52:15.573Z,102190.72
2022-10-17T18:54:48.144Z,102193.44
2022-10-17T18:57:23.900Z,102189.84
2022-10-17T18:59:58.878Z,102187.19
2022-10-17T19:02:35.560Z,102191.56
2022-10-17T19:05:10.942Z,102190.72
2022-10-17T19:07:43.726Z,102195.16
2022-10-17T19:10:16.563Z,102192.53
2022-10-17T19:12:49.396Z,102196.97
2022-10-17T19:15:25.142Z,102196.91
2022-10-17T19:17:58.884Z,102189.06
2022-10-17T19:20:31.762Z,102189.91
2022-10-17T19:23:05.057Z,102193.44
2022-10-17T19:25:40.800Z,102194.31
2022-10-17T19:28:13.554Z,102202.34
2022-10-17T19:30:46.168Z,102197.75
2022-10-17T19:33:19.164Z,102198.63
2022-10-17T19:36:07.774Z,102211.06
2022-10-17T19:42:22.051Z,102209.59
2022-10-17T19:45:56.641Z,102205.94
2022-10-17T19:48:42.518Z,102210.44
2022-10-17T19:51:55.830Z,102215.75
2022-10-17T19:54:28.570Z,102221.91
2022-10-17T19:57:11.755Z,102224.47
2022-10-17T20:12:31.610Z,102221.00
2022-10-17T20:15:09.621Z,102221.91
2022-10-17T20:17:57.645Z,102223.78
2022-10-17T20:20:55.679Z,102222.19
2022-10-17T20:23:39.682Z,102219.41
2022-10-17T20:26:44.385Z,102221.22
2022-10-17T20:29:38.060Z,102223.94
2022-10-17T20:32:39.536Z,102223.94
2022-10-17T20:35:12.367Z,102230.25
2022-10-17T20:40:49.135Z,102220.53
2022-10-17T20:43:28.022Z,102229.44
2022-10-17T20:46:23.257Z,102234.69
2022-10-17T20:50:10.918Z,102237.44
2022-10-17T20:56:49.528Z,102254.47
2022-10-17T20:59:22.473Z,102250.84
2022-10-17T21:02:12.592Z,102251.00
2022-10-17T21:05:21.321Z,102242.09
2022-10-17T21:07:57.031Z,102236.78
2022-10-17T21:10:35.445Z,102237.75
2022-10-17T21:13:12.993Z,102244.00
2022-10-17T21:15:48.313Z,102242.28
2022-10-17T21:18:25.064Z,102240.53
2022-10-17T21:21:16.215Z,102242.34
2022-10-17T21:23:56.743Z,102248.53
2022-10-17T21:30:49.385Z,102252.22
2022-10-17T21:36:50.536Z,102265.59
2022-10-17T21:43:20.580Z,102269.19
2022-10-17T21:46:32.111Z,102263.88
2022-10-17T21:49:14.435Z,102271.03
2022-10-17T21:51:53.693Z,102273.75
2022-10-17T21:54:36.569Z,102280.03
2022-10-17T21:57:37.523Z,102295.13
2022-10-17T22:00:27.512Z,102299.56
2022-10-17T22:03:30.728Z,102298.63
2022-10-17T22:06:43.018Z,102304.00
2022-10-17T22:09:41.812Z,102295.16
2022-10-17T22:12:34.752Z,102300.50
2022-10-17T22:15:23.834Z,102310.28
2022-10-17T22:18:01.992Z,102306.75
2022-10-17T22:21:44.735Z,102313.88
2022-10-17T22:27:28.705Z,102302.34
2022-10-17T22:30:21.565Z,102297.97
2022-10-17T22:32:59.259Z,102305.06
2022-10-17T22:35:47.905Z,102301.53
2022-10-17T22:38:22.968Z,102309.50
2022-10-17T22:41:10.388Z,102303.38
2022-10-17T22:43:51.222Z,102309.44
2022-10-17T22:46:28.256Z,102307.59
2022-10-17T22:49:16.812Z,102307.59
2022-10-17T22:51:57.238Z,102304.00
2022-10-17T22:54:29.926Z,102304.03
2022-10-17T22:57:14.199Z,102307.59
2022-10-17T22:59:53.482Z,102311.19
2022-10-17T23:02:38.780Z,102303.25
2022-10-17T23:05:19.513Z,102315.66
2022-10-17T23:07:57.188Z,102312.06
2022-10-17T23:10:38.465Z,102315.59
2022-10-17T23:13:29.755Z,102308.47
2022-10-17T23:16:07.069Z,102312.94
2022-10-17T23:18:40.485Z,102310.22
2022-10-17T23:21:15.678Z,102316.38
2022-10-17T23:24:14.720Z,102316.38
2022-10-17T23:26:57.766Z,102314.66
2022-10-17T23:29:39.870Z,102318.22
2022-10-17T23:32:24.763Z,102312.91
2022-10-17T23:34:57.517Z,102317.28
2022-10-17T23:37:36.777Z,102307.47
2022-10-17T23:40:13.468Z,102306.59
2022-10-17T23:42:59.672Z,102313.72
2022-10-17T23:48:38.703Z,102319.94
2022-10-17T23:51:22.361Z,102319.91
2022-10-17T23:54:01.391Z,102316.38
2022-10-17T23:56:36.824Z,102323.47
2022-10-17T23:59:14.532Z,102303.94
